• Join FlightAware (Why Join?)
  • Login
  • US Flag 
12:26PM EDT


 

Airport Tracker/Info


-or-


 

Live Flight TrackerFlight Track Log ✈ GGN7281 ✈ 24-Jun-2013 ✈ KALB - CYYZ

Flight Track Log - Related Links

Times and Time Zones

All times are in EDT time to prevent confusion due to time zone crossing. See the GGN7281 flight status page for this flight to view local times or setup timezone preferences in your user account.

Time Position Orientation Groundspeed Altitude Reporting Facility
EDT Latitude Longitude Course Direction KTS MPH feet Rate Location/Type
11:24AM 42.7256 -73.8108 182° South 141 162 1,000  Level Boston Center
11:25AM 42.6881 -73.8128 182° South 172 198 2,000 1,260 Climbing Boston Center
11:26AM 42.6789 -73.8775 259° West 181 208 3,300 1,200 Climbing Boston Center
11:28AM 42.6903 -73.9625 280° West 180 207 5,000 1,200 Climbing Boston Center
11:29AM 42.7103 -74.0253 293° West 180 207 6,300 1,080 Climbing Boston Center
11:30AM 42.7219 -74.0906 284° West 185 213 7,400 1,020 Climbing Boston Center
11:31AM 42.7394 -74.1786 285° West 185 213 8,600 1,140 Climbing Boston Center
11:32AM 42.7547 -74.2556 285° West 190 219 9,700 900 Climbing Boston Center
11:33AM 42.7578 -74.3292 273° West 203 234 10,500 660 Climbing Boston Center
11:34AM 42.7631 -74.3942 276° West 213 245 11,100 900 Climbing Boston Center
11:35AM 42.7717 -74.4878 277° West 218 251 12,300 1,080 Climbing Boston Center
11:36AM 42.7722 -74.5756 271° West 218 251 13,300 840 Climbing Boston Center
11:37AM 42.7789 -74.6550 277° West 223 257 14,000 840 Climbing Boston Center
11:38AM 42.7792 -74.7511 270° West 223 257 15,000 840 Climbing Boston Center
11:39AM 42.7817 -74.8278 273° West 228 262 15,700 660 Climbing Boston Center
11:40AM 42.7886 -74.8989 278° West 234 269 16,400 900 Climbing Boston Center
11:41AM 42.7947 -75.0036 275° West 234 269 17,600 960 Climbing Boston Center
11:42AM 42.8011 -75.0889 276° West 234 269 18,400 720 Climbing Boston Center
11:43AM 42.8008 -75.1794 270° West 234 269 19,100 600 Climbing Boston Center
11:44AM 42.8092 -75.2675 277° West 234 269 19,700 360 Climbing Boston Center
11:45AM 42.8111 -75.3583 272° West 234 269 19,900 60 Climbing Boston Center
11:46AM 42.8189 -75.4547 276° West 244 281 19,900  Level Boston Center
11:47AM 42.8225 -75.5514 273° West 254 292 19,900  Level Boston Center
11:48AM 42.8261 -75.6506 273° West 259 298 19,900  Level Boston Center
11:49AM 42.8294 -75.7500 273° West 259 298 20,000  Climbing Boston Center
11:50AM 42.8350 -75.8464 275° West 259 298 20,000 -60 Level Boston Center
11:51AM 42.8403 -75.9458 274° West 259 298 19,900 -60 Descending Boston Center
11:52AM 42.8456 -76.0425 274° West 259 298 19,900  Level Boston Center
11:53AM 42.8486 -76.1447 272° West 259 298 20,000  Climbing Boston Center
11:55AM 42.8500 -76.3167 271° West 270 311 20,000  Level Toronto Center
11:56AM 42.8500 -76.4000 270° West 260 299 20,000  Level Toronto Center
11:57AM 42.8500 -76.5000 270° West 260 299 20,000  Level Toronto Center
11:58AM 42.8500 -76.6167 270° West 260 299 20,000  Level Toronto Center
11:59AM 42.8667 -76.7000 285° West 270 311 20,000  Level Toronto Center
12:00PM 42.8667 -76.8167 270° West 270 311 20,000  Level Toronto Center
12:01PM 42.8811 -76.9703 277° West 271 312 20,000  Level Cleveland Center
12:02PM 42.8842 -77.0722 272° West 271 312 20,000 -60 Level Cleveland Center
12:03PM 42.8892 -77.1711 274° West 271 312 19,900  Descending Cleveland Center
12:04PM 42.8922 -77.2703 272° West 271 312 20,000  Climbing Cleveland Center
12:05PM 42.8931 -77.3808 271° West 271 312 19,900  Descending Cleveland Center
12:06PM 42.9125 -77.4761 286° West 271 312 20,000  Climbing Cleveland Center
12:07PM 42.9317 -77.5744 285° West 271 312 20,000  Level Cleveland Center
12:08PM 42.9528 -77.6700 287° West 271 312 20,000  Level Cleveland Center
12:09PM 42.9742 -77.7656 287° West 271 312 20,100 -240 Climbing Cleveland Center
12:10PM 42.9953 -77.8639 286° West 271 312 19,600 -780 Descending Cleveland Center
12:11PM 43.0183 -77.9650 287° West 271 312 18,600 -900 Descending Cleveland Center
12:12PM 43.0372 -78.0636 285° West 277 319 17,800 -780 Descending Cleveland Center
12:13PM 43.0603 -78.1650 287° West 277 319 17,100 -660 Descending Cleveland Center
12:14PM 43.0789 -78.2667 284° West 277 319 16,500 -660 Descending Cleveland Center
12:15PM 43.1019 -78.3711 287° West 282 325 15,800 -600 Descending Cleveland Center
12:16PM 43.1225 -78.4728 286° West 282 325 15,300 -480 Descending Cleveland Center
12:17PM 43.1408 -78.5744 284° West 282 325 14,900 -540 Descending Cleveland Center
12:18PM 43.1636 -78.6761 287° West 282 325 14,300 -600 Descending Cleveland Center
12:19PM 43.1839 -78.7781 285° West 282 325 13,800 -600 Descending Cleveland Center
12:20PM 43.2022 -78.8803 284° West 282 325 13,200 -660 Descending Cleveland Center
12:21PM 43.2167 -78.9167 299° West 280 322 12,800 -660 Descending Toronto Center